createdAt,value
2022-12-15T00:00:43.693Z,25.43
2022-12-15T00:03:30.175Z,23.13
2022-12-15T00:06:19.660Z,24.07
2022-12-15T00:09:09.718Z,24.70
2022-12-15T00:11:58.551Z,24.80
2022-12-15T00:14:44.357Z,23.77
2022-12-15T00:17:31.970Z,23.37
2022-12-15T00:20:18.137Z,24.90
2022-12-15T00:23:03.982Z,24.77
2022-12-15T00:25:49.901Z,25.03
2022-12-15T00:28:35.920Z,26.63
2022-12-15T00:31:21.838Z,24.17
2022-12-15T00:34:09.547Z,24.73
2022-12-15T00:36:56.086Z,24.20
2022-12-15T00:39:24.832Z,24.53
2022-12-15T00:41:53.415Z,25.03
2022-12-15T00:44:23.252Z,25.10
2022-12-15T00:46:56.960Z,24.37
2022-12-15T00:49:48.183Z,24.67
2022-12-15T00:52:36.907Z,23.03
2022-12-15T00:55:24.183Z,24.83
2022-12-15T00:58:13.053Z,24.23
2022-12-15T01:00:59.231Z,24.23
2022-12-15T01:03:45.317Z,24.60
2022-12-15T01:06:35.827Z,26.03
2022-12-15T01:09:23.041Z,25.90
2022-12-15T01:12:08.956Z,24.33
2022-12-15T01:14:54.977Z,24.87
2022-12-15T01:17:41.130Z,25.27
2022-12-15T01:20:20.070Z,24.23
2022-12-15T01:22:56.130Z,24.77
2022-12-15T01:25:27.652Z,24.03
2022-12-15T01:27:56.862Z,25.03
2022-12-15T01:30:28.480Z,25.40
2022-12-15T01:32:57.135Z,25.80
2022-12-15T01:35:27.658Z,25.50
2022-12-15T01:37:57.828Z,26.13
2022-12-15T01:40:43.804Z,25.33
2022-12-15T01:43:17.741Z,25.10
2022-12-15T01:46:02.378Z,25.00
2022-12-15T01:48:55.678Z,25.20
2022-12-15T01:51:34.740Z,26.40
2022-12-15T01:54:09.415Z,25.23
2022-12-15T01:56:45.369Z,26.17
2022-12-15T01:59:19.658Z,28.17
2022-12-15T02:01:49.575Z,27.33
2022-12-15T02:04:22.256Z,27.50
2022-12-15T02:06:53.127Z,26.20
2022-12-15T02:09:26.270Z,26.87
2022-12-15T02:12:07.384Z,26.30
2022-12-15T02:14:59.945Z,27.37
2022-12-15T02:17:42.067Z,24.87
2022-12-15T02:20:54.279Z,24.93
2022-12-15T02:23:59.737Z,25.13
2022-12-15T02:27:17.002Z,25.53
2022-12-15T02:30:37.346Z,24.87
2022-12-15T02:33:13.830Z,26.43
2022-12-15T02:36:01.731Z,26.07
2022-12-15T02:38:33.645Z,27.23
2022-12-15T02:41:05.210Z,27.13
2022-12-15T02:43:40.062Z,25.60
2022-12-15T02:46:28.038Z,27.23
2022-12-15T02:49:10.973Z,26.10
2022-12-15T02:51:58.000Z,27.63
2022-12-15T02:54:50.086Z,26.33
2022-12-15T02:57:28.588Z,27.67
2022-12-15T03:00:03.786Z,28.23
2022-12-15T03:02:37.782Z,30.13
2022-12-15T03:05:07.963Z,28.43
2022-12-15T03:07:36.618Z,28.03
2022-12-15T03:10:08.216Z,27.40
2022-12-15T03:12:37.131Z,28.73
2022-12-15T03:15:07.532Z,29.43
2022-12-15T03:17:38.373Z,27.20
2022-12-15T03:20:09.067Z,28.17
2022-12-15T03:22:38.508Z,27.73
2022-12-15T03:25:08.214Z,26.30
2022-12-15T03:27:37.932Z,26.20
2022-12-15T03:30:08.876Z,26.23
2022-12-15T03:32:39.158Z,27.70
2022-12-15T03:35:10.077Z,26.20
2022-12-15T03:37:38.666Z,26.13
2022-12-15T03:40:09.147Z,26.40
2022-12-15T03:42:50.093Z,27.33
2022-12-15T03:45:20.966Z,26.37
2022-12-15T03:47:52.770Z,27.50
2022-12-15T03:50:26.174Z,32.00
2022-12-15T03:52:57.472Z,26.77
2022-12-15T03:55:28.865Z,26.53
2022-12-15T03:57:59.270Z,26.00
2022-12-15T04:00:28.775Z,26.20
2022-12-15T04:02:59.047Z,25.50
2022-12-15T04:05:31.241Z,27.07
2022-12-15T04:08:01.893Z,26.90
2022-12-15T04:10:36.119Z,26.50
2022-12-15T04:13:07.566Z,27.73
2022-12-15T04:15:37.383Z,26.97
2022-12-15T04:18:11.069Z,28.13
2022-12-15T04:20:40.364Z,30.07
2022-12-15T04:23:09.706Z,31.73
2022-12-15T04:25:56.787Z,33.17
2022-12-15T04:28:42.975Z,32.77
2022-12-15T04:31:36.394Z,28.83
2022-12-15T04:34:29.880Z,26.27
2022-12-15T04:37:16.203Z,27.17
2022-12-15T04:40:06.211Z,27.70
2022-12-15T04:42:55.044Z,27.20
2022-12-15T04:45:44.206Z,28.27
2022-12-15T04:48:30.484Z,27.33
2022-12-15T04:51:18.341Z,28.37
2022-12-15T04:54:05.179Z,29.30
2022-12-15T04:56:51.718Z,29.20
2022-12-15T04:59:37.936Z,28.63
2022-12-15T05:02:24.272Z,28.60
2022-12-15T05:05:10.191Z,29.17
2022-12-15T05:07:57.597Z,31.20
2022-12-15T05:10:43.446Z,29.97
2022-12-15T05:13:29.573Z,28.73
2022-12-15T05:16:15.935Z,28.10
2022-12-15T05:19:02.110Z,28.10
2022-12-15T05:21:48.109Z,28.07
2022-12-15T05:24:35.601Z,29.87
2022-12-15T05:27:21.725Z,29.80
2022-12-15T05:30:07.893Z,29.20
2022-12-15T05:32:36.679Z,28.03
2022-12-15T05:35:06.130Z,28.10
2022-12-15T05:37:34.847Z,30.43
2022-12-15T05:40:06.349Z,31.40
2022-12-15T05:42:34.959Z,37.10
2022-12-15T05:45:05.298Z,32.90
2022-12-15T05:47:33.915Z,32.50
2022-12-15T05:50:02.588Z,32.03
2022-12-15T05:52:31.751Z,31.83
2022-12-15T05:55:00.488Z,30.37
2022-12-15T05:57:30.626Z,31.67
2022-12-15T05:59:59.356Z,28.90
2022-12-15T06:02:29.986Z,31.50
2022-12-15T06:04:58.725Z,33.63
2022-12-15T06:07:27.664Z,32.90
2022-12-15T06:09:56.399Z,35.23
2022-12-15T06:12:25.106Z,35.30
2022-12-15T06:14:55.344Z,35.60
2022-12-15T06:17:24.331Z,30.97
2022-12-15T06:19:53.001Z,32.23
2022-12-15T06:22:21.653Z,35.07
2022-12-15T06:24:51.282Z,32.83
2022-12-15T06:27:19.986Z,32.73
2022-12-15T06:29:48.690Z,32.33
2022-12-15T06:32:18.718Z,32.87
2022-12-15T06:34:47.454Z,32.17
2022-12-15T06:37:16.362Z,33.33
2022-12-15T06:39:44.988Z,32.63
2022-12-15T06:42:14.701Z,30.83
2022-12-15T06:44:43.600Z,31.97
2022-12-15T06:47:12.294Z,31.90
2022-12-15T06:49:42.303Z,33.30
2022-12-15T06:52:10.980Z,32.30
2022-12-15T06:54:39.778Z,34.00
2022-12-15T06:57:08.492Z,33.87
2022-12-15T06:59:37.071Z,32.60
2022-12-15T07:02:06.065Z,31.13
2022-12-15T07:04:34.864Z,34.07
2022-12-15T07:07:04.927Z,33.50
2022-12-15T07:09:33.588Z,33.77
2022-12-15T07:12:02.340Z,32.43
2022-12-15T07:14:31.058Z,33.37
2022-12-15T07:16:59.780Z,31.73
2022-12-15T07:19:28.631Z,32.20
2022-12-15T07:21:57.951Z,33.97
2022-12-15T07:24:27.958Z,33.70
2022-12-15T07:26:57.460Z,33.10
2022-12-15T07:29:26.103Z,33.53
2022-12-15T07:31:54.952Z,34.33
2022-12-15T07:34:24.169Z,36.30
2022-12-15T07:36:53.012Z,35.60
2022-12-15T07:39:21.653Z,35.77
2022-12-15T07:41:51.688Z,37.30
2022-12-15T07:44:20.902Z,35.63
2022-12-15T07:46:50.266Z,35.00
2022-12-15T07:49:19.791Z,33.53
2022-12-15T07:51:48.745Z,37.43
2022-12-15T07:54:18.067Z,39.13
2022-12-15T07:56:50.375Z,49.03
2022-12-15T07:59:20.979Z,45.03
2022-12-15T08:01:50.036Z,41.97
2022-12-15T08:04:19.511Z,40.23
2022-12-15T08:06:48.197Z,37.97
2022-12-15T08:09:16.941Z,36.60
2022-12-15T08:11:45.561Z,35.00
2022-12-15T08:14:17.645Z,34.37
2022-12-15T08:16:48.586Z,35.40
2022-12-15T08:19:19.144Z,34.23
2022-12-15T08:21:48.526Z,35.83
2022-12-15T08:24:19.474Z,32.37
2022-12-15T08:26:49.975Z,34.37
2022-12-15T08:32:10.094Z,32.57
2022-12-15T08:34:40.087Z,34.20
2022-12-15T08:37:09.612Z,32.33
2022-12-15T08:39:39.064Z,33.20
2022-12-15T08:42:07.904Z,32.07
2022-12-15T08:44:36.880Z,32.60
2022-12-15T08:47:05.986Z,31.47
2022-12-15T08:49:36.261Z,32.87
2022-12-15T08:52:05.111Z,32.23
2022-12-15T08:54:34.141Z,32.13
2022-12-15T08:57:02.827Z,33.60
2022-12-15T08:59:31.496Z,31.67
2022-12-15T09:02:01.577Z,32.93
2022-12-15T09:04:30.640Z,34.27
2022-12-15T09:07:00.896Z,35.27
2022-12-15T09:09:29.640Z,32.13
2022-12-15T09:11:58.328Z,35.40
2022-12-15T09:14:29.380Z,33.37
2022-12-15T09:16:58.489Z,34.53
2022-12-15T09:19:28.094Z,34.53
2022-12-15T09:21:56.940Z,34.73
2022-12-15T09:24:34.743Z,33.43
2022-12-15T09:27:05.523Z,34.70
2022-12-15T09:29:35.155Z,35.03
2022-12-15T09:32:07.747Z,36.30
2022-12-15T09:34:40.871Z,35.63
2022-12-15T09:37:09.684Z,34.50
2022-12-15T09:39:40.235Z,35.70
2022-12-15T09:42:28.365Z,34.63
2022-12-15T09:45:07.832Z,34.43
2022-12-15T09:47:44.848Z,37.27
2022-12-15T09:50:16.695Z,36.50
2022-12-15T09:52:51.598Z,36.03
2022-12-15T09:55:25.679Z,36.83
2022-12-15T09:57:56.732Z,37.10
2022-12-15T10:00:30.491Z,35.33
2022-12-15T10:03:34.957Z,36.90
2022-12-15T10:06:16.706Z,36.20
2022-12-15T10:08:51.499Z,37.33
2022-12-15T10:11:41.728Z,37.57
2022-12-15T10:14:26.330Z,37.50
2022-12-15T10:17:12.101Z,38.03
2022-12-15T10:19:50.591Z,39.03
2022-12-15T10:22:26.037Z,35.67
2022-12-15T10:25:11.603Z,38.87
2022-12-15T10:28:09.151Z,37.87
2022-12-15T10:30:44.397Z,37.07
2022-12-15T10:33:20.503Z,38.70
2022-12-15T10:35:51.940Z,36.90
2022-12-15T10:38:33.216Z,38.63
2022-12-15T10:41:05.995Z,41.80
2022-12-15T10:43:39.042Z,39.97
2022-12-15T10:46:15.385Z,39.73
2022-12-15T10:48:48.511Z,41.37
2022-12-15T10:51:23.317Z,44.90
2022-12-15T10:53:55.627Z,41.77
2022-12-15T10:56:33.194Z,40.40
2022-12-15T10:59:23.425Z,47.83
2022-12-15T11:01:53.058Z,42.37
2022-12-15T11:04:29.880Z,41.30
2022-12-15T11:06:59.844Z,38.27
2022-12-15T11:09:35.836Z,40.17
2022-12-15T11:12:35.856Z,40.37
2022-12-15T11:15:51.310Z,41.30
2022-12-15T11:18:32.473Z,39.43
2022-12-15T11:21:08.636Z,43.77
2022-12-15T11:23:53.275Z,43.57
2022-12-15T11:26:50.338Z,40.43
2022-12-15T11:29:46.217Z,41.03
2022-12-15T11:32:26.495Z,41.13
2022-12-15T11:34:56.029Z,41.23
2022-12-15T11:37:44.955Z,43.10
2022-12-15T11:40:40.301Z,44.43
2022-12-15T11:43:45.506Z,44.07
2022-12-15T11:46:24.209Z,44.67
2022-12-15T11:49:40.974Z,43.80
2022-12-15T11:52:27.877Z,45.30
2022-12-15T11:55:04.843Z,46.03
2022-12-15T11:58:29.103Z,44.83
2022-12-15T12:01:11.955Z,43.93
2022-12-15T12:03:58.486Z,46.23
2022-12-15T12:06:40.034Z,46.60
2022-12-15T12:09:33.035Z,43.67
2022-12-15T12:12:16.339Z,44.50
2022-12-15T12:15:03.048Z,44.70
2022-12-15T12:17:43.459Z,44.13
2022-12-15T12:20:20.981Z,42.83
2022-12-15T12:23:02.506Z,44.67
2022-12-15T12:25:37.848Z,43.90
2022-12-15T12:28:17.278Z,44.87
2022-12-15T12:30:50.653Z,44.57
2022-12-15T12:33:34.085Z,45.30
2022-12-15T12:36:11.054Z,43.57
2022-12-15T12:38:50.868Z,45.73
2022-12-15T12:41:32.536Z,42.87
2022-12-15T12:44:10.389Z,44.80
2022-12-15T12:46:48.957Z,44.67
2022-12-15T12:49:31.911Z,44.73
2022-12-15T12:52:05.148Z,43.70
2022-12-15T12:54:55.126Z,45.17
2022-12-15T12:57:41.544Z,48.13
2022-12-15T13:00:22.142Z,45.47
2022-12-15T13:03:21.415Z,45.13
2022-12-15T13:05:54.592Z,45.23
2022-12-15T13:08:51.782Z,43.73
2022-12-15T13:12:14.994Z,44.20
2022-12-15T13:14:51.761Z,42.17
2022-12-15T13:17:32.332Z,45.03
2022-12-15T13:20:29.067Z,44.70
2022-12-15T13:23:34.721Z,44.73
2022-12-15T13:26:15.336Z,46.93
2022-12-15T13:28:51.855Z,45.23
2022-12-15T13:31:49.663Z,45.40
2022-12-15T13:34:36.829Z,46.13
2022-12-15T13:37:52.583Z,46.00
2022-12-15T13:40:35.049Z,45.60
2022-12-15T13:43:32.505Z,46.73
2022-12-15T13:46:16.147Z,46.33
2022-12-15T13:48:49.326Z,45.80
2022-12-15T13:51:35.427Z,47.47
2022-12-15T13:54:16.212Z,46.00
2022-12-15T13:56:56.160Z,45.93
2022-12-15T13:59:42.470Z,45.97
2022-12-15T14:02:33.255Z,46.73
2022-12-15T14:05:21.958Z,46.57
2022-12-15T14:07:59.394Z,46.80
2022-12-15T14:10:40.759Z,48.83
2022-12-15T14:13:16.358Z,49.17
2022-12-15T14:15:52.472Z,47.73
2022-12-15T14:18:31.143Z,48.27
2022-12-15T14:21:01.486Z,46.63
2022-12-15T14:23:39.807Z,47.40
2022-12-15T14:26:11.816Z,46.47
2022-12-15T14:28:45.689Z,46.63
2022-12-15T14:31:19.344Z,50.10
2022-12-15T14:34:03.663Z,48.07
2022-12-15T14:36:34.475Z,50.43
2022-12-15T14:39:07.665Z,48.83
2022-12-15T14:41:44.629Z,50.50
2022-12-15T14:44:36.490Z,50.07
2022-12-15T14:47:22.242Z,52.30
2022-12-15T14:52:46.197Z,53.80
2022-12-15T14:55:35.922Z,52.77
2022-12-15T14:58:27.910Z,51.70
2022-12-15T15:01:02.662Z,51.83
2022-12-15T15:03:15.361Z,59.47
2022-12-15T15:03:39.120Z,50.80
2022-12-15T15:06:19.837Z,52.23
2022-12-15T15:08:54.425Z,52.73
2022-12-15T15:11:31.104Z,53.43
2022-12-15T15:14:06.005Z,51.70
2022-12-15T15:16:35.061Z,55.50
2022-12-15T15:19:05.675Z,55.13
2022-12-15T15:21:38.522Z,56.53
2022-12-15T15:24:30.828Z,55.40
2022-12-15T15:27:33.343Z,55.50
2022-12-15T15:30:22.000Z,53.37
2022-12-15T15:32:57.634Z,54.43
2022-12-15T15:35:33.573Z,54.10
2022-12-15T15:38:25.239Z,54.50
2022-12-15T15:40:56.672Z,55.03
2022-12-15T15:43:26.838Z,57.93
2022-12-15T15:46:05.820Z,56.70
2022-12-15T15:48:39.309Z,59.53
2022-12-15T15:51:08.455Z,59.67
2022-12-15T15:53:40.062Z,57.00
2022-12-15T15:56:15.027Z,56.80
2022-12-15T15:58:47.967Z,57.57
2022-12-15T16:01:17.009Z,58.10
2022-12-15T16:03:46.984Z,57.67
2022-12-15T16:06:21.980Z,57.97
2022-12-15T16:08:55.859Z,57.03
2022-12-15T16:11:25.723Z,58.57
2022-12-15T16:13:54.482Z,56.03
2022-12-15T16:16:28.073Z,57.47
2022-12-15T16:18:59.289Z,58.50
2022-12-15T16:21:32.016Z,55.47
2022-12-15T16:24:09.167Z,55.33
2022-12-15T16:26:39.397Z,56.27
2022-12-15T16:29:16.128Z,56.13
2022-12-15T16:31:45.905Z,56.67
2022-12-15T16:34:16.576Z,56.93
2022-12-15T16:36:46.574Z,56.53
2022-12-15T16:39:27.428Z,57.33
2022-12-15T16:41:57.653Z,56.13
2022-12-15T16:44:27.687Z,57.97
2022-12-15T16:46:57.129Z,57.30
2022-12-15T16:49:27.752Z,58.20
2022-12-15T16:51:56.677Z,57.87
2022-12-15T16:54:31.707Z,58.33
2022-12-15T16:57:01.162Z,59.17
2022-12-15T16:59:34.266Z,58.07
2022-12-15T17:02:24.065Z,58.03
2022-12-15T17:04:55.249Z,54.23
2022-12-15T17:07:26.350Z,56.87
2022-12-15T17:09:57.034Z,53.97
2022-12-15T17:12:26.012Z,53.40
2022-12-15T17:14:54.664Z,54.40
2022-12-15T17:17:23.443Z,51.80
2022-12-15T17:20:27.576Z,50.67
2022-12-15T17:22:41.124Z,50.77
2022-12-15T17:25:37.429Z,53.37
2022-12-15T17:28:18.436Z,53.30
2022-12-15T17:30:50.339Z,53.33
2022-12-15T17:33:21.715Z,51.77
2022-12-15T17:35:53.708Z,53.03
2022-12-15T17:38:25.360Z,53.33
2022-12-15T17:40:57.707Z,50.30
2022-12-15T17:43:35.385Z,59.63
2022-12-15T17:46:04.603Z,55.70
2022-12-15T17:48:33.509Z,62.80
2022-12-15T17:51:12.263Z,52.37
2022-12-15T17:53:42.124Z,52.10
2022-12-15T17:56:14.846Z,55.40
2022-12-15T17:58:44.215Z,52.93
2022-12-15T18:01:15.273Z,53.37
2022-12-15T18:03:44.011Z,52.80
2022-12-15T18:06:16.052Z,51.97
2022-12-15T18:08:45.133Z,51.93
2022-12-15T18:11:17.764Z,51.37
2022-12-15T18:13:46.343Z,54.90
2022-12-15T18:16:15.440Z,53.17
2022-12-15T18:18:44.422Z,55.10
2022-12-15T18:21:18.383Z,55.00
2022-12-15T18:23:47.729Z,54.80
2022-12-15T18:26:21.095Z,51.73
2022-12-15T18:28:49.935Z,51.93
2022-12-15T18:31:26.949Z,54.23
2022-12-15T18:34:17.547Z,52.20
2022-12-15T18:36:47.031Z,53.60
2022-12-15T18:39:20.313Z,51.47
2022-12-15T18:41:51.123Z,52.27
2022-12-15T18:44:25.223Z,60.63
2022-12-15T18:46:55.235Z,55.10
2022-12-15T18:49:24.520Z,55.87
2022-12-15T18:51:53.499Z,53.47
2022-12-15T18:54:26.622Z,63.80
2022-12-15T18:57:02.665Z,53.90
2022-12-15T18:59:46.146Z,52.43
2022-12-15T19:02:17.638Z,50.10
2022-12-15T19:04:46.799Z,55.30
2022-12-15T19:07:15.661Z,56.30
2022-12-15T19:09:59.058Z,53.60
2022-12-15T19:12:29.224Z,55.70
2022-12-15T19:14:57.909Z,51.00
2022-12-15T19:17:43.960Z,54.03
2022-12-15T19:20:36.898Z,49.30
2022-12-15T19:23:06.793Z,52.20
2022-12-15T19:25:36.661Z,50.50
2022-12-15T19:28:15.289Z,50.80
2022-12-15T19:30:44.935Z,51.00
2022-12-15T19:33:15.615Z,51.17
2022-12-15T19:35:47.138Z,51.17
2022-12-15T19:38:25.575Z,48.87
2022-12-15T19:40:56.154Z,49.17
2022-12-15T19:43:27.504Z,49.47
2022-12-15T19:45:56.226Z,50.30
2022-12-15T19:48:24.909Z,49.43
2022-12-15T19:50:54.909Z,49.33
2022-12-15T19:53:28.816Z,48.40
2022-12-15T19:56:03.763Z,51.60
2022-12-15T19:58:37.035Z,50.17
2022-12-15T20:01:09.813Z,49.97
2022-12-15T20:03:39.633Z,52.10
2022-12-15T20:06:17.211Z,50.20
2022-12-15T20:08:48.624Z,50.57
2022-12-15T20:11:20.596Z,48.70
2022-12-15T20:13:52.812Z,49.97
2022-12-15T20:16:24.268Z,49.67
2022-12-15T20:18:55.234Z,51.90
2022-12-15T20:21:31.443Z,50.97
2022-12-15T20:24:07.316Z,54.00
2022-12-15T20:26:38.280Z,71.87
2022-12-15T20:29:22.690Z,59.97
2022-12-15T20:31:52.338Z,56.93
2022-12-15T20:34:22.203Z,55.37
2022-12-15T20:36:51.101Z,52.93
2022-12-15T20:39:26.575Z,50.73
2022-12-15T20:41:55.950Z,50.47
2022-12-15T20:44:26.846Z,50.13
2022-12-15T20:46:56.089Z,49.67
2022-12-15T20:49:25.902Z,51.87
2022-12-15T20:51:54.616Z,49.20
2022-12-15T20:54:24.196Z,49.90
2022-12-15T20:56:53.602Z,53.03
2022-12-15T20:59:22.265Z,48.73
2022-12-15T21:01:52.909Z,50.50
2022-12-15T21:04:28.483Z,52.20
2022-12-15T21:06:58.878Z,48.97
2022-12-15T21:09:27.889Z,52.07
2022-12-15T21:11:57.192Z,49.17
2022-12-15T21:14:26.240Z,49.27
2022-12-15T21:16:58.168Z,50.27
2022-12-15T21:19:27.530Z,48.53
2022-12-15T21:21:56.842Z,48.97
2022-12-15T21:24:28.435Z,54.03
2022-12-15T21:26:57.812Z,52.97
2022-12-15T21:29:29.300Z,49.60
2022-12-15T21:31:59.423Z,50.07
2022-12-15T21:34:28.033Z,50.13
2022-12-15T21:36:58.324Z,46.13
2022-12-15T21:39:31.190Z,47.03
2022-12-15T21:42:02.284Z,50.07
2022-12-15T21:44:31.110Z,49.97
2022-12-15T21:47:01.151Z,47.70
2022-12-15T21:49:28.833Z,46.80
2022-12-15T21:52:01.430Z,48.10
2022-12-15T21:54:36.034Z,50.73
2022-12-15T21:57:05.352Z,48.47
2022-12-15T21:59:34.864Z,47.77
2022-12-15T22:02:25.795Z,51.83
2022-12-15T22:04:55.085Z,53.40
2022-12-15T22:07:23.942Z,52.17
2022-12-15T22:09:52.665Z,51.20
2022-12-15T22:12:24.990Z,52.57
2022-12-15T22:14:54.020Z,51.53
2022-12-15T22:17:25.049Z,54.53
2022-12-15T22:19:53.764Z,52.70
2022-12-15T22:22:24.662Z,51.20
2022-12-15T22:24:55.659Z,53.13
2022-12-15T22:27:24.888Z,50.43
2022-12-15T22:29:53.866Z,49.03
2022-12-15T22:32:23.917Z,50.30
2022-12-15T22:34:52.635Z,49.83
2022-12-15T22:37:21.446Z,47.80
2022-12-15T22:39:50.154Z,48.60
2022-12-15T22:42:20.614Z,49.40
2022-12-15T22:44:49.342Z,48.47
2022-12-15T22:47:18.139Z,48.47
2022-12-15T22:49:48.381Z,46.13
2022-12-15T22:52:19.883Z,44.50
2022-12-15T22:54:49.385Z,46.33
2022-12-15T22:57:24.378Z,42.90
2022-12-15T23:00:00.598Z,44.60
2022-12-15T23:02:34.171Z,45.13
2022-12-15T23:05:05.229Z,43.10
2022-12-15T23:07:35.709Z,41.03
2022-12-15T23:10:22.633Z,40.63
2022-12-15T23:12:54.437Z,39.40
2022-12-15T23:15:41.802Z,38.77
2022-12-15T23:18:10.861Z,37.20
2022-12-15T23:20:41.566Z,36.73
2022-12-15T23:23:10.993Z,35.30
2022-12-15T23:25:39.727Z,34.43
2022-12-15T23:28:08.864Z,32.27
2022-12-15T23:30:37.544Z,32.27
2022-12-15T23:33:06.456Z,29.40
2022-12-15T23:35:35.878Z,30.30
2022-12-15T23:38:05.926Z,28.50
2022-12-15T23:40:34.606Z,27.47
2022-12-15T23:43:03.232Z,26.57
2022-12-15T23:45:31.941Z,27.83
2022-12-15T23:48:00.660Z,26.90
2022-12-15T23:50:29.243Z,24.67
2022-12-15T23:52:57.859Z,22.83
2022-12-15T23:55:27.896Z,23.10
2022-12-15T23:57:57.766Z,22.00
